createdAt,value
2022-10-14T00:00:21.641Z,8.61
2022-10-14T00:02:53.420Z,8.54
2022-10-14T00:05:24.898Z,8.43
2022-10-14T00:07:56.723Z,8.42
2022-10-14T00:10:28.315Z,8.45
2022-10-14T00:12:59.811Z,8.46
2022-10-14T00:15:31.281Z,8.46
2022-10-14T00:18:03.097Z,8.46
2022-10-14T00:20:34.567Z,8.44
2022-10-14T00:23:06.584Z,8.49
2022-10-14T00:25:38.170Z,8.48
2022-10-14T00:28:10.147Z,8.41
2022-10-14T00:30:41.597Z,8.33
2022-10-14T00:33:13.513Z,8.30
2022-10-14T00:35:45.449Z,8.29
2022-10-14T00:38:16.916Z,8.26
2022-10-14T00:40:48.679Z,8.24
2022-10-14T00:43:20.227Z,8.32
2022-10-14T00:45:52.020Z,8.33
2022-10-14T00:48:23.469Z,8.33
2022-10-14T00:50:55.292Z,8.33
2022-10-14T00:53:26.743Z,8.35
2022-10-14T00:55:58.512Z,8.28
2022-10-14T00:58:30.632Z,8.25
2022-10-14T01:01:02.174Z,8.21
2022-10-14T01:03:33.670Z,8.25
2022-10-14T01:06:05.470Z,8.27
2022-10-14T01:08:36.935Z,8.24
2022-10-14T01:11:08.714Z,8.20
2022-10-14T01:13:40.177Z,8.11
2022-10-14T01:16:12.383Z,8.12
2022-10-14T01:18:43.854Z,8.13
2022-10-14T01:21:15.635Z,8.11
2022-10-14T01:23:47.096Z,8.06
2022-10-14T01:26:18.890Z,8.06
2022-10-14T01:28:51.124Z,8.07
2022-10-14T01:31:22.726Z,7.99
2022-10-14T01:33:54.171Z,7.88
2022-10-14T01:36:25.990Z,7.74
2022-10-14T01:38:57.458Z,7.68
2022-10-14T01:41:29.210Z,7.79
2022-10-14T01:44:00.699Z,7.78
2022-10-14T01:46:32.561Z,7.71
2022-10-14T01:49:04.092Z,7.71
2022-10-14T01:51:35.997Z,7.70
2022-10-14T01:54:07.516Z,7.68
2022-10-14T01:56:40.674Z,7.64
2022-10-14T01:59:12.890Z,7.69
2022-10-14T02:01:44.854Z,7.63
2022-10-14T02:04:16.353Z,7.67
2022-10-14T02:06:48.075Z,7.72
2022-10-14T02:09:19.547Z,7.72
2022-10-14T02:11:51.440Z,7.72
2022-10-14T02:14:22.923Z,7.76
2022-10-14T02:16:54.749Z,7.73
2022-10-14T02:19:26.207Z,7.72
2022-10-14T02:21:57.951Z,7.80
2022-10-14T02:24:29.401Z,7.76
2022-10-14T02:27:00.908Z,7.87
2022-10-14T02:29:32.384Z,7.88
2022-10-14T02:32:04.211Z,7.94
2022-10-14T02:34:35.674Z,7.98
2022-10-14T02:37:07.399Z,8.02
2022-10-14T02:39:38.908Z,8.11
2022-10-14T02:42:10.689Z,8.13
2022-10-14T02:44:42.147Z,8.20
2022-10-14T02:47:13.979Z,8.24
2022-10-14T02:49:45.427Z,8.30
2022-10-14T02:52:17.395Z,8.34
2022-10-14T02:54:49.156Z,8.40
2022-10-14T02:57:20.616Z,8.48
2022-10-14T02:59:52.392Z,8.53
2022-10-14T03:02:24.168Z,8.60
2022-10-14T03:04:55.831Z,8.66
2022-10-14T03:07:27.303Z,8.70
2022-10-14T03:09:59.071Z,8.76
2022-10-14T03:12:30.588Z,8.78
2022-10-14T03:15:02.316Z,8.81
2022-10-14T03:17:33.769Z,8.75
2022-10-14T03:20:05.552Z,8.68
2022-10-14T03:22:37.003Z,8.64
2022-10-14T03:25:08.490Z,8.63
2022-10-14T03:27:39.979Z,8.59
2022-10-14T03:30:11.820Z,8.56
2022-10-14T03:32:43.577Z,8.54
2022-10-14T03:35:15.835Z,8.55
2022-10-14T03:37:47.300Z,8.51
2022-10-14T03:40:19.260Z,8.47
2022-10-14T03:42:50.784Z,8.43
2022-10-14T03:45:22.723Z,8.39
2022-10-14T03:47:57.357Z,8.35
2022-10-14T03:50:29.024Z,8.39
2022-10-14T03:53:00.538Z,8.42
2022-10-14T03:55:32.388Z,8.36
2022-10-14T03:58:03.892Z,8.40
2022-10-14T04:00:36.045Z,8.39
2022-10-14T04:03:07.512Z,8.37
2022-10-14T04:05:39.216Z,8.34
2022-10-14T04:08:10.792Z,8.33
2022-10-14T04:10:42.546Z,8.31
2022-10-14T04:13:14.107Z,8.27
2022-10-14T04:15:45.607Z,8.28
2022-10-14T04:18:17.095Z,8.31
2022-10-14T04:20:49.147Z,8.33
2022-10-14T04:23:20.651Z,8.30
2022-10-14T04:25:52.425Z,8.33
2022-10-14T04:28:24.098Z,8.29
2022-10-14T04:30:55.639Z,8.36
2022-10-14T04:33:27.111Z,8.38
2022-10-14T04:35:59.049Z,8.37
2022-10-14T04:38:30.528Z,8.36
2022-10-14T04:41:02.289Z,8.37
2022-10-14T04:43:33.763Z,8.38
2022-10-14T04:46:06.007Z,8.43
2022-10-14T04:48:37.477Z,8.50
2022-10-14T04:51:09.322Z,8.51
2022-10-14T04:53:40.892Z,8.52
2022-10-14T04:56:12.714Z,8.57
2022-10-14T04:58:44.181Z,8.56
2022-10-14T05:01:16.120Z,8.58
2022-10-14T05:03:48.355Z,8.56
2022-10-14T05:06:20.286Z,8.60
2022-10-14T05:08:51.747Z,8.63
2022-10-14T05:11:23.759Z,8.62
2022-10-14T05:13:55.215Z,8.63
2022-10-14T05:16:27.205Z,8.69
2022-10-14T05:18:58.701Z,8.68
2022-10-14T05:21:30.560Z,8.72
2022-10-14T05:24:02.028Z,8.75
2022-10-14T05:26:33.964Z,8.75
2022-10-14T05:29:05.546Z,8.83
2022-10-14T05:31:37.389Z,8.87
2022-10-14T05:34:08.856Z,8.89
2022-10-14T05:36:40.686Z,8.90
2022-10-14T05:39:12.268Z,8.94
2022-10-14T05:41:44.064Z,8.95
2022-10-14T05:44:15.507Z,8.95
2022-10-14T05:46:47.359Z,9.00
2022-10-14T05:49:18.892Z,9.05
2022-10-14T05:51:50.422Z,9.08
2022-10-14T05:54:21.912Z,9.16
2022-10-14T05:56:53.396Z,9.21
2022-10-14T05:59:25.301Z,9.25
2022-10-14T06:01:57.097Z,9.29
2022-10-14T06:04:28.653Z,9.30
2022-10-14T06:07:00.150Z,9.35
2022-10-14T06:09:31.957Z,9.42
2022-10-14T06:12:03.544Z,9.48
2022-10-14T06:14:35.058Z,9.54
2022-10-14T06:17:06.542Z,9.61
2022-10-14T06:19:38.091Z,9.72
2022-10-14T06:22:09.596Z,9.77
2022-10-14T06:24:41.133Z,9.81
2022-10-14T06:27:12.650Z,9.86
2022-10-14T06:29:44.168Z,9.94
2022-10-14T06:32:15.640Z,9.93
2022-10-14T06:34:47.122Z,10.04
2022-10-14T06:37:18.576Z,10.12
2022-10-14T06:39:50.156Z,10.19
2022-10-14T06:42:22.013Z,10.23
2022-10-14T06:44:53.779Z,10.36
2022-10-14T06:47:25.235Z,10.43
2022-10-14T06:49:56.761Z,10.51
2022-10-14T06:52:28.233Z,10.50
2022-10-14T06:54:59.760Z,10.54
2022-10-14T06:57:34.016Z,10.60
2022-10-14T07:00:05.836Z,10.60
2022-10-14T07:02:37.677Z,10.72
2022-10-14T07:05:09.588Z,10.77
2022-10-14T07:07:41.130Z,10.87
2022-10-14T07:10:13.092Z,10.98
2022-10-14T07:12:47.591Z,11.06
2022-10-14T07:15:19.076Z,11.22
2022-10-14T07:17:50.585Z,11.30
2022-10-14T07:20:22.061Z,11.37
2022-10-14T07:22:53.555Z,11.47
2022-10-14T07:25:25.204Z,11.55
2022-10-14T07:27:56.798Z,11.64
2022-10-14T07:30:28.806Z,11.65
2022-10-14T07:33:00.362Z,11.78
2022-10-14T07:35:32.639Z,11.69
2022-10-14T07:38:04.117Z,11.71
2022-10-14T07:40:35.974Z,11.95
2022-10-14T07:43:07.504Z,12.06
2022-10-14T07:45:39.241Z,12.28
2022-10-14T07:48:10.716Z,12.48
2022-10-14T07:50:42.488Z,12.56
2022-10-14T07:53:13.950Z,12.60
2022-10-14T07:55:52.333Z,12.83
2022-10-14T07:58:23.793Z,12.93
2022-10-14T08:00:55.419Z,12.95
2022-10-14T08:03:26.981Z,12.92
2022-10-14T08:05:58.515Z,13.09
2022-10-14T08:08:29.996Z,13.31
2022-10-14T08:11:01.821Z,13.37
2022-10-14T08:13:33.380Z,13.42
2022-10-14T08:16:06.031Z,13.39
2022-10-14T08:18:37.519Z,13.40
2022-10-14T08:21:09.307Z,13.89
2022-10-14T08:23:40.765Z,14.47
2022-10-14T08:26:12.620Z,14.30
2022-10-14T08:28:44.250Z,14.32
2022-10-14T08:31:16.047Z,14.19
2022-10-14T08:33:47.546Z,13.92
2022-10-14T08:36:19.270Z,14.91
2022-10-14T08:38:50.751Z,15.09
2022-10-14T08:41:23.243Z,15.59
2022-10-14T08:43:55.085Z,15.76
2022-10-14T08:46:26.785Z,16.61
2022-10-14T08:48:58.661Z,16.40
2022-10-14T08:51:30.570Z,16.12
2022-10-14T08:54:06.009Z,15.61
2022-10-14T08:56:40.688Z,15.72
2022-10-14T08:59:12.182Z,15.82
2022-10-14T09:01:43.670Z,16.11
2022-10-14T09:04:15.223Z,16.18
2022-10-14T09:06:46.727Z,16.08
2022-10-14T09:09:18.198Z,16.04
2022-10-14T09:11:49.752Z,16.14
2022-10-14T09:14:21.937Z,16.34
2022-10-14T09:16:54.281Z,16.25
2022-10-14T09:19:26.459Z,16.70
2022-10-14T09:21:57.918Z,16.39
2022-10-14T09:24:29.482Z,16.34
2022-10-14T09:27:00.983Z,16.79
2022-10-14T09:29:32.993Z,16.99
2022-10-14T09:32:04.516Z,16.94
2022-10-14T09:34:36.275Z,17.19
2022-10-14T09:37:07.738Z,16.87
2022-10-14T09:39:40.302Z,16.93
2022-10-14T09:42:11.787Z,16.70
2022-10-14T09:44:43.617Z,17.15
2022-10-14T09:47:18.959Z,17.16
2022-10-14T09:49:50.992Z,16.93
2022-10-14T09:52:22.729Z,17.25
2022-10-14T09:54:54.907Z,16.95
2022-10-14T09:57:26.370Z,17.02
2022-10-14T09:59:58.374Z,17.05
2022-10-14T10:02:29.837Z,17.30
2022-10-14T10:05:01.325Z,17.50
2022-10-14T10:07:33.043Z,17.67
2022-10-14T10:10:05.516Z,17.70
2022-10-14T10:12:37.062Z,17.56
2022-10-14T10:15:09.398Z,17.72
2022-10-14T10:17:40.984Z,17.82
2022-10-14T10:20:12.530Z,17.83
2022-10-14T10:22:44.043Z,18.02
2022-10-14T10:25:15.601Z,18.39
2022-10-14T10:27:47.830Z,18.58
2022-10-14T10:30:22.834Z,18.63
2022-10-14T10:32:54.853Z,18.83
2022-10-14T10:35:26.678Z,19.03
2022-10-14T10:37:58.144Z,18.54
2022-10-14T10:40:29.931Z,18.82
2022-10-14T10:43:01.503Z,19.49
2022-10-14T10:45:36.537Z,19.40
2022-10-14T10:48:08.342Z,19.59
2022-10-14T10:50:40.131Z,19.36
2022-10-14T10:53:11.617Z,19.31
2022-10-14T10:55:43.110Z,19.27
2022-10-14T10:58:14.642Z,18.96
2022-10-14T11:00:46.485Z,19.39
2022-10-14T11:03:17.948Z,19.63
2022-10-14T11:05:49.422Z,19.44
2022-10-14T11:08:39.615Z,19.51
2022-10-14T11:11:30.047Z,19.72
2022-10-14T11:14:01.563Z,19.41
2022-10-14T11:16:33.202Z,19.67
2022-10-14T11:19:04.668Z,19.42
2022-10-14T11:21:36.504Z,19.63
2022-10-14T11:24:08.056Z,19.18
2022-10-14T11:26:41.706Z,18.78
2022-10-14T11:29:13.250Z,19.42
2022-10-14T11:31:46.532Z,19.17
2022-10-14T11:34:18.000Z,19.39
2022-10-14T11:36:50.392Z,19.46
2022-10-14T11:39:22.277Z,19.31
2022-10-14T11:41:53.753Z,19.12
2022-10-14T11:44:25.270Z,18.86
2022-10-14T11:46:56.925Z,18.77
2022-10-14T11:49:29.335Z,18.88
2022-10-14T11:52:02.137Z,18.89
2022-10-14T11:54:33.982Z,18.64
2022-10-14T11:57:05.448Z,18.28
2022-10-14T11:59:36.996Z,18.26
2022-10-14T12:02:08.603Z,18.30
2022-10-14T12:04:40.526Z,18.31
2022-10-14T12:07:12.043Z,18.29
2022-10-14T12:09:43.917Z,18.17
2022-10-14T12:12:15.409Z,17.94
2022-10-14T12:14:47.189Z,18.15
2022-10-14T12:17:19.004Z,18.40
2022-10-14T12:19:52.444Z,18.70
2022-10-14T12:22:24.257Z,18.73
2022-10-14T12:24:56.510Z,18.43
2022-10-14T12:27:28.437Z,18.32
2022-10-14T12:30:00.518Z,18.35
2022-10-14T12:32:32.057Z,18.24
2022-10-14T12:35:04.000Z,18.05
2022-10-14T12:37:37.760Z,18.16
2022-10-14T12:40:09.522Z,18.35
2022-10-14T12:42:41.331Z,18.18
2022-10-14T12:45:14.476Z,18.53
2022-10-14T12:47:46.192Z,18.51
2022-10-14T12:50:19.035Z,18.79
2022-10-14T12:52:50.528Z,18.99
2022-10-14T12:55:22.277Z,19.33
2022-10-14T12:57:55.004Z,19.67
2022-10-14T13:00:26.776Z,19.93
2022-10-14T13:02:58.239Z,20.07
2022-10-14T13:05:30.982Z,19.89
2022-10-14T13:08:02.815Z,20.17
2022-10-14T13:10:34.701Z,20.11
2022-10-14T13:15:38.946Z,19.49
2022-10-14T13:18:10.439Z,19.37
2022-10-14T13:20:42.188Z,19.25
2022-10-14T13:23:13.993Z,18.79
2022-10-14T13:25:45.902Z,18.66
2022-10-14T13:28:17.679Z,18.51
2022-10-14T13:30:49.585Z,18.63
2022-10-14T13:33:21.055Z,18.72
2022-10-14T13:35:52.560Z,18.62
2022-10-14T13:38:24.224Z,18.66
2022-10-14T13:40:56.078Z,18.67
2022-10-14T13:43:27.941Z,18.57
2022-10-14T13:45:59.973Z,18.42
2022-10-14T13:48:31.475Z,18.20
2022-10-14T13:51:17.227Z,18.34
2022-10-14T13:53:55.124Z,18.16
2022-10-14T13:56:26.649Z,18.28
2022-10-14T13:58:58.622Z,18.27
2022-10-14T14:01:30.106Z,18.42
2022-10-14T14:04:01.656Z,18.22
2022-10-14T14:06:45.239Z,18.20
2022-10-14T14:09:25.219Z,18.21
2022-10-14T14:11:56.693Z,18.04
2022-10-14T14:14:28.474Z,18.09
2022-10-14T14:16:59.992Z,17.80
2022-10-14T14:19:31.758Z,17.98
2022-10-14T14:22:03.236Z,17.89
2022-10-14T14:24:35.100Z,17.77
2022-10-14T14:27:06.608Z,17.72
2022-10-14T14:29:39.351Z,17.66
2022-10-14T14:32:10.820Z,17.80
2022-10-14T14:34:42.724Z,17.82
2022-10-14T14:40:06.172Z,18.02
2022-10-14T14:42:37.745Z,18.45
2022-10-14T14:45:09.563Z,18.74
2022-10-14T14:47:41.033Z,18.76
2022-10-14T14:50:29.643Z,18.72
2022-10-14T14:53:02.713Z,18.54
2022-10-14T14:55:34.615Z,18.19
2022-10-14T14:58:06.149Z,17.90
2022-10-14T15:00:38.027Z,17.69
2022-10-14T15:03:09.562Z,17.45
2022-10-14T15:05:41.554Z,17.31
2022-10-14T15:08:13.036Z,17.21
2022-10-14T15:10:44.796Z,16.96
2022-10-14T15:13:17.830Z,16.91
2022-10-14T15:15:50.424Z,16.81
2022-10-14T15:18:22.054Z,16.76
2022-10-14T15:20:54.043Z,16.61
2022-10-14T15:23:25.516Z,16.52
2022-10-14T15:25:57.514Z,16.43
2022-10-14T15:28:29.380Z,16.40
2022-10-14T15:31:04.709Z,16.37
2022-10-14T15:33:37.401Z,16.33
2022-10-14T15:36:09.337Z,16.29
2022-10-14T15:38:41.274Z,16.21
2022-10-14T15:41:12.735Z,16.17
2022-10-14T15:43:44.510Z,16.14
2022-10-14T15:46:34.677Z,16.09
2022-10-14T15:49:06.467Z,16.06
2022-10-14T15:51:38.006Z,15.99
2022-10-14T15:54:09.862Z,15.91
2022-10-14T15:56:41.410Z,15.80
2022-10-14T15:59:16.339Z,15.74
2022-10-14T16:01:47.854Z,15.65
2022-10-14T16:04:20.101Z,15.53
2022-10-14T16:06:54.455Z,15.49
2022-10-14T16:09:27.873Z,15.39
2022-10-14T16:11:59.446Z,15.28
2022-10-14T16:14:30.964Z,15.15
2022-10-14T16:17:03.047Z,15.09
2022-10-14T16:19:34.525Z,15.01
2022-10-14T16:22:06.028Z,14.97
2022-10-14T16:24:37.619Z,14.89
2022-10-14T16:27:09.209Z,14.82
2022-10-14T16:29:41.027Z,14.79
2022-10-14T16:32:12.542Z,14.79
2022-10-14T16:34:44.428Z,14.77
2022-10-14T16:37:16.875Z,14.78
2022-10-14T16:39:49.745Z,14.75
2022-10-14T16:42:21.209Z,14.76
2022-10-14T16:44:53.186Z,14.77
2022-10-14T16:47:24.979Z,14.80
2022-10-14T16:49:57.630Z,14.79
2022-10-14T16:52:29.120Z,14.75
2022-10-14T16:55:01.081Z,14.76
2022-10-14T16:57:32.644Z,14.77
2022-10-14T17:00:04.483Z,14.74
2022-10-14T17:02:35.976Z,14.76
2022-10-14T17:05:07.771Z,14.77
2022-10-14T17:07:39.239Z,14.78
2022-10-14T17:10:11.164Z,14.77
2022-10-14T17:12:42.846Z,14.78
2022-10-14T17:15:14.666Z,14.17
2022-10-14T17:17:46.126Z,14.76
2022-10-14T17:20:18.114Z,14.76
2022-10-14T17:22:49.907Z,14.76
2022-10-14T17:25:22.808Z,14.76
2022-10-14T17:27:54.360Z,14.77
2022-10-14T17:30:26.194Z,14.74
2022-10-14T17:32:57.690Z,14.70
2022-10-14T17:35:29.519Z,14.65
2022-10-14T17:38:00.997Z,14.61
2022-10-14T17:40:34.207Z,14.59
2022-10-14T17:43:05.688Z,14.56
2022-10-14T17:45:38.688Z,14.52
2022-10-14T17:48:10.238Z,14.45
2022-10-14T17:50:42.063Z,14.40
2022-10-14T17:53:13.769Z,14.34
2022-10-14T17:55:45.571Z,14.29
2022-10-14T17:58:17.170Z,14.26
2022-10-14T18:00:48.948Z,14.21
2022-10-14T18:03:20.460Z,14.17
2022-10-14T18:05:52.042Z,14.17
2022-10-14T18:08:24.774Z,14.13
2022-10-14T18:10:57.051Z,14.09
2022-10-14T18:13:28.637Z,14.07
2022-10-14T18:16:00.152Z,14.03
2022-10-14T18:18:31.701Z,13.98
2022-10-14T18:21:04.505Z,13.91
2022-10-14T18:23:36.068Z,13.89
2022-10-14T18:26:10.890Z,13.83
2022-10-14T18:28:44.805Z,13.77
2022-10-14T18:31:16.721Z,13.73
2022-10-14T18:33:48.664Z,13.69
2022-10-14T18:36:20.152Z,13.65
2022-10-14T18:38:51.640Z,13.63
2022-10-14T18:41:23.132Z,13.58
2022-10-14T18:43:55.052Z,13.58
2022-10-14T18:46:27.267Z,13.55
2022-10-14T18:48:59.062Z,13.51
2022-10-14T18:51:30.628Z,13.44
2022-10-14T18:54:02.796Z,13.44
2022-10-14T18:56:34.370Z,13.39
2022-10-14T18:59:07.363Z,13.34
2022-10-14T19:01:39.228Z,13.32
2022-10-14T19:04:13.085Z,13.27
2022-10-14T19:06:48.663Z,13.25
2022-10-14T19:09:21.954Z,13.21
2022-10-14T19:11:53.441Z,13.18
2022-10-14T19:14:24.937Z,13.14
2022-10-14T19:16:56.407Z,13.13
2022-10-14T19:19:28.676Z,13.14
2022-10-14T19:22:00.961Z,13.10
2022-10-14T19:24:32.721Z,13.10
2022-10-14T19:27:04.170Z,13.10
2022-10-14T19:29:35.697Z,13.05
2022-10-14T19:32:07.163Z,13.05
2022-10-14T19:34:41.616Z,13.03
2022-10-14T19:37:15.166Z,13.02
2022-10-14T19:39:46.648Z,13.02
2022-10-14T19:42:18.114Z,13.02
2022-10-14T19:44:49.933Z,13.02
2022-10-14T19:47:21.891Z,13.06
2022-10-14T19:49:54.231Z,13.04
2022-10-14T19:52:25.688Z,13.02
2022-10-14T19:54:57.165Z,13.08
2022-10-14T19:57:28.641Z,13.07
2022-10-14T20:00:00.198Z,13.06
2022-10-14T20:02:31.792Z,13.08
2022-10-14T20:05:03.566Z,13.08
2022-10-14T20:07:35.058Z,13.09
2022-10-14T20:10:07.048Z,13.12
2022-10-14T20:12:38.497Z,13.13
2022-10-14T20:15:10.410Z,13.18
2022-10-14T20:17:41.863Z,13.17
2022-10-14T20:20:13.677Z,13.21
2022-10-14T20:22:45.135Z,13.25
2022-10-14T20:25:16.618Z,13.26
2022-10-14T20:27:48.103Z,13.26
2022-10-14T20:30:19.637Z,13.26
2022-10-14T20:32:51.181Z,13.28
2022-10-14T20:35:23.215Z,13.26
2022-10-14T20:37:54.796Z,13.26
2022-10-14T20:40:26.638Z,13.25
2022-10-14T20:42:58.164Z,13.25
2022-10-14T20:45:29.827Z,13.24
2022-10-14T20:48:01.289Z,13.25
2022-10-14T20:50:32.817Z,13.23
2022-10-14T20:53:05.379Z,13.27
2022-10-14T20:55:36.934Z,13.27
2022-10-14T20:58:08.439Z,13.28
2022-10-14T21:00:40.257Z,13.30
2022-10-14T21:03:11.740Z,13.32
2022-10-14T21:05:43.259Z,13.32
2022-10-14T21:08:14.771Z,13.31
2022-10-14T21:10:46.583Z,13.31
2022-10-14T21:13:18.041Z,13.26
2022-10-14T21:15:49.537Z,13.28
2022-10-14T21:18:21.068Z,13.25
2022-10-14T21:23:29.025Z,13.28
2022-10-14T21:26:00.552Z,13.30
2022-10-14T21:28:32.108Z,13.28
2022-10-14T21:31:03.685Z,13.29
2022-10-14T21:33:35.156Z,13.30
2022-10-14T21:36:06.723Z,13.31
2022-10-14T21:38:38.229Z,13.31
2022-10-14T21:41:10.087Z,13.30
2022-10-14T21:43:41.571Z,13.32
2022-10-14T21:46:13.463Z,13.32
2022-10-14T21:48:44.984Z,13.36
2022-10-14T21:51:16.782Z,13.36
2022-10-14T21:53:48.295Z,13.36
2022-10-14T21:56:19.800Z,13.37
2022-10-14T21:58:51.409Z,13.38
2022-10-14T22:01:23.452Z,13.36
2022-10-14T22:03:55.081Z,13.37
2022-10-14T22:06:26.901Z,13.37
2022-10-14T22:08:58.462Z,13.35
2022-10-14T22:11:30.412Z,13.32
2022-10-14T22:14:02.385Z,13.34
2022-10-14T22:16:34.034Z,13.30
2022-10-14T22:19:06.328Z,13.26
2022-10-14T22:21:37.861Z,13.24
2022-10-14T22:24:10.225Z,13.20
2022-10-14T22:26:42.043Z,13.17
2022-10-14T22:29:14.134Z,13.15
2022-10-14T22:31:45.603Z,13.12
2022-10-14T22:34:17.416Z,13.10
2022-10-14T22:36:48.940Z,13.05
2022-10-14T22:39:20.801Z,13.00
2022-10-14T22:41:52.287Z,12.96
2022-10-14T22:44:24.190Z,12.95
2022-10-14T22:46:55.648Z,12.94
2022-10-14T22:49:27.502Z,12.93
2022-10-14T22:51:58.955Z,12.91
2022-10-14T22:54:30.712Z,12.90
2022-10-14T22:57:02.178Z,12.89
2022-10-14T22:59:34.057Z,12.86
2022-10-14T23:02:05.531Z,12.86
2022-10-14T23:04:37.344Z,12.87
2022-10-14T23:07:09.030Z,12.85
2022-10-14T23:09:40.508Z,12.83
2022-10-14T23:12:12.053Z,12.84
2022-10-14T23:14:44.042Z,12.84
2022-10-14T23:17:15.495Z,12.85
2022-10-14T23:19:47.453Z,12.87
2022-10-14T23:22:19.088Z,12.89
2022-10-14T23:24:50.908Z,12.89
2022-10-14T23:27:22.383Z,12.95
2022-10-14T23:29:54.148Z,12.96
2022-10-14T23:32:25.630Z,12.97
2022-10-14T23:34:57.408Z,12.98
2022-10-14T23:37:28.881Z,13.01
2022-10-14T23:40:01.975Z,13.03
2022-10-14T23:42:33.433Z,13.04
2022-10-14T23:45:05.339Z,13.08
2022-10-14T23:47:36.862Z,13.10
2022-10-14T23:50:08.653Z,13.12
2022-10-14T23:52:40.110Z,13.12
2022-10-14T23:55:11.879Z,13.07
2022-10-14T23:57:43.378Z,13.08
